Main page
METAR-TAF:

METAR-TAF

Airports :

Chania International Airport

Chania, Crete, Greece

latitude: 35-29N, longitude: 024-07E, elevation: 146 m

Current weather observation

The report was made 21 minutes ago, at 03:50 UTC
Calm wind
Temperature 16°C
Humidity 94%
Pressure 1019 hPa
Visibility 10 km or more
Few clouds at a height of 1000 ft

METAR: LGSA 160350Z 00000KT 9999 FEW010 16/15 Q1019

Time: 07:11 (04:11 UTC)

Forecast

The report was made 5 hours and 11 minutes ago, at 23:00 UTC
Forecast valid from 16 at 00 UTC to 16 at 24 UTC
Wind 5 kt from variable directions
Visibility 10 km or more
Few clouds at a height of 1000 ft
Scattered clouds at a height of 2500 ft
Becoming
from 16 at 07 UTC to 16 at 09 UTC
Wind 10 kt from the Northeast

TAF: LGSA 152300Z 1600/1624 VRB05KT 9999 FEW010 SCT025 BECMG 1607/1609 04010KT

Weather observations and forecasts of more than 4000 airports (METAR and TAF reports).

The available stations are represented by yellow and red dots on the map.

Hover mouse over dot to see the name of the station.

Then click to see weather observations and forecasts.

To change the map : click on the green buttons with a black cross to zoom in, on the green button with a dash to zoom out, or on the green arrows for adjacent maps.


METAR-TAF: